Time;durP1;ratioP1;P1;durP2;ratioP2;P2;SDS_P1;SDS_P2;PMS_P1;PMS_P2;Temp;Humidity;BMP_temperature;BMP_pressure;BME280_temperature;BME280_humidity;BME280_pressure;Samples;Min_cycle;Max_cycle;Signal;HPM_P1;HPM_P2
2022/01/14 00:02:02;;;;;;;61.30;26.63;;;-0.90;99.90;;;;;;4975888;28;20191;-82
2022/01/14 00:04:27;;;;;;;73.13;30.63;;;-1.00;99.90;;;;;;4978085;28;20483;-86
2022/01/14 00:06:54;;;;;;;70.47;34.50;;;-1.00;99.90;;;;;;4978060;28;20179;-85
2022/01/14 00:09:19;;;;;;;77.07;36.88;;;-1.00;99.90;;;;;;4971070;28;20680;-84
2022/01/14 00:11:50;;;;;;;72.10;31.70;;;-1.00;99.90;;;;;;4975673;28;20187;-86
2022/01/14 00:16:43;;;;;;;43.67;21.30;;;-1.00;99.90;;;;;;4979805;28;20199;-85
2022/01/14 00:19:09;;;;;;;58.47;20.97;;;-1.10;99.90;;;;;;4985808;28;20186;-85
2022/01/14 00:21:37;;;;;;;63.53;28.50;;;-1.30;99.90;;;;;;4973998;28;20192;-84
2022/01/14 00:24:07;;;;;;;54.03;25.73;;;-1.30;99.90;;;;;;4975553;28;20190;-85
2022/01/14 00:32:09;;;;;;;56.80;31.58;;;-1.10;99.90;;;;;;4976794;28;20277;-84
2022/01/14 00:34:35;;;;;;;46.33;21.77;;;-1.10;99.90;;;;;;4979662;28;20210;-84
2022/01/14 00:37:01;;;;;;;47.20;22.63;;;-1.20;99.90;;;;;;4976725;28;20204;-85
2022/01/14 00:39:27;;;;;;;54.13;25.77;;;-1.30;99.90;;;;;;4979438;28;20188;-86
2022/01/14 00:41:52;;;;;;;62.80;28.90;;;-1.30;99.90;;;;;;4978020;28;20188;-86
2022/01/14 00:44:19;;;;;;;64.60;30.77;;;-1.20;99.90;;;;;;4975222;28;20271;-85
2022/01/14 00:46:47;;;;;;;53.22;30.10;;;-1.20;99.90;;;;;;4988170;28;20766;-84
2022/01/14 00:49:14;;;;;;;63.85;29.55;;;-1.10;99.90;;;;;;4975854;28;20279;-83
2022/01/14 00:51:40;;;;;;;52.50;30.55;;;;;;;;;;4978545;28;20184;-85
2022/01/14 00:54:07;;;;;;;49.00;27.02;;;-1.10;99.90;;;;;;4992083;28;20191;-85
2022/01/14 00:59:16;;;;;;;63.50;31.15;;;-1.10;99.90;;;;;;4978545;28;20164;-84
2022/01/14 01:01:46;;;;;;;62.47;29.88;;;-1.20;99.90;;;;;;4982215;28;20186;-84
2022/01/14 01:04:32;;;;;;;57.70;29.15;;;-1.10;99.90;;;;;;4980647;28;20620;-83
2022/01/14 01:07:00;;;;;;;51.40;24.83;;;-1.20;99.90;;;;;;4982002;28;20191;-83
2022/01/14 01:09:26;;;;;;;47.92;21.85;;;-1.20;99.90;;;;;;4981498;28;20179;-85
2022/01/14 01:14:40;;;;;;;53.20;26.83;;;-1.20;99.90;;;;;;4980247;28;20212;-84
2022/01/14 01:17:07;;;;;;;60.20;29.58;;;-1.30;99.90;;;;;;4978889;28;20245;-84
2022/01/14 01:19:32;;;;;;;63.40;31.52;;;-1.30;99.90;;;;;;4994262;28;20184;-86
2022/01/14 01:21:58;;;;;;;69.37;34.53;;;-1.20;99.90;;;;;;4980539;28;20185;-86
2022/01/14 01:24:23;;;;;;;58.77;30.57;;;-1.10;99.90;;;;;;4980842;28;20215;-86
2022/01/14 01:26:51;;;;;;;58.40;29.70;;;-1.10;99.90;;;;;;4993170;28;20183;-85
2022/01/14 01:31:51;;;;;;;55.55;28.10;;;-1.20;99.90;;;;;;4978313;28;20269;-84
2022/01/14 01:34:22;;;;;;;49.60;25.17;;;-1.20;99.90;;;;;;4978532;28;20218;-86
2022/01/14 01:36:51;;;;;;;50.67;29.10;;;-1.30;99.90;;;;;;4980483;28;20799;-87
2022/01/14 01:39:20;;;;;;;48.70;24.58;;;-1.30;99.90;;;;;;4977777;28;20190;-86
2022/01/14 01:41:49;;;;;;;42.92;20.15;;;-1.30;99.90;;;;;;4984735;28;20263;-83
2022/01/14 01:44:17;;;;;;;46.22;21.70;;;-1.30;99.90;;;;;;4977559;28;20172;-85
2022/01/14 01:46:46;;;;;;;43.15;23.98;;;-1.30;99.90;;;;;;4977252;28;20195;-87
2022/01/14 01:49:14;;;;;;;36.72;20.85;;;-1.30;99.90;;;;;;4980751;28;20826;-86
2022/01/14 01:51:42;;;;;;;54.70;23.85;;;-1.30;99.90;;;;;;4979581;28;20191;-87
2022/01/14 01:54:08;;;;;;;43.47;23.70;;;-1.30;99.90;;;;;;4995270;28;20628;-84
2022/01/14 01:56:33;;;;;;;59.27;27.70;;;-1.30;99.90;;;;;;4980155;28;20221;-85
2022/01/14 01:58:59;;;;;;;59.77;25.43;;;-1.30;99.90;;;;;;4993456;28;21048;-87
2022/01/14 02:01:25;;;;;;;61.17;28.80;;;-1.20;99.90;;;;;;4981441;28;20184;-87
2022/01/14 02:03:54;;;;;;;45.23;22.20;;;-1.20;99.90;;;;;;4984017;28;20180;-88
2022/01/14 02:06:20;;;;;;;46.53;24.65;;;-1.30;99.90;;;;;;4981144;28;20603;-87
2022/01/14 02:08:47;;;;;;;49.80;24.27;;;;;;;;;;4982108;28;20172;-88
2022/01/14 02:11:13;;;;;;;54.28;28.20;;;;;;;;;;4994428;28;20183;-88
2022/01/14 02:13:39;;;;;;;54.70;28.70;;;;;;;;;;4997284;28;20175;-87
2022/01/14 02:18:59;;;;;;;47.80;23.10;;;-1.30;99.90;;;;;;4982183;28;20196;-85
2022/01/14 02:24:22;;;;;;;61.90;24.35;;;-1.40;99.90;;;;;;4982848;28;20198;-88
2022/01/14 02:26:53;;;;;;;52.78;26.92;;;-1.40;99.90;;;;;;4980741;28;20614;-84
2022/01/14 02:29:21;;;;;;;40.40;18.90;;;-1.30;99.90;;;;;;4987558;28;20171;-86
2022/01/14 02:31:47;;;;;;;39.78;19.17;;;-1.40;99.90;;;;;;4979501;28;20861;-85
2022/01/14 02:34:14;;;;;;;38.50;20.52;;;-1.40;99.90;;;;;;4980303;28;20199;-84
2022/01/14 02:36:42;;;;;;;54.95;27.67;;;-1.40;99.90;;;;;;4981658;28;20209;-88
2022/01/14 02:39:09;;;;;;;49.35;24.92;;;-1.40;99.90;;;;;;4983728;28;20191;-88
2022/01/14 02:41:37;;;;;;;53.15;24.83;;;-1.40;99.90;;;;;;4990534;28;20190;-86
2022/01/14 02:44:04;;;;;;;54.33;25.80;;;-1.40;99.90;;;;;;4980875;28;20285;-84
2022/01/14 02:46:37;;;;;;;37.97;18.92;;;-1.40;99.90;;;;;;4978418;28;20222;-85
2022/01/14 02:49:03;;;;;;;37.17;21.50;;;-1.40;99.90;;;;;;4979403;28;20236;-86
2022/01/14 02:51:29;;;;;;;44.85;22.10;;;-1.50;99.90;;;;;;4993774;28;20244;-85
2022/01/14 02:53:58;;;;;;;44.03;25.47;;;;;;;;;;4979259;28;20743;-86
2022/01/14 02:56:30;;;;;;;52.90;27.67;;;-1.40;99.90;;;;;;4996891;28;20215;-86
2022/01/14 02:58:57;;;;;;;53.55;26.20;;;-1.50;99.90;;;;;;4984620;28;20203;-86
2022/01/14 03:01:24;;;;;;;53.80;26.38;;;-1.40;99.90;;;;;;4988567;28;20245;-84
2022/01/14 03:03:55;;;;;;;55.22;27.63;;;-1.50;99.90;;;;;;4985285;28;20180;-87
2022/01/14 03:06:21;;;;;;;58.22;28.58;;;-1.40;99.90;;;;;;4980329;28;21841;-86
2022/01/14 03:08:47;;;;;;;70.77;31.70;;;;;;;;;;4983941;28;20205;-87
2022/01/14 03:11:22;;;;;;;57.72;26.27;;;-1.50;99.90;;;;;;5001593;28;20275;-87
2022/01/14 03:13:47;;;;;;;55.70;24.88;;;-1.50;99.90;;;;;;4984384;28;20190;-87
2022/01/14 03:16:14;;;;;;;51.77;23.47;;;;;;;;;;4982633;28;20639;-84
2022/01/14 03:18:46;;;;;;;48.53;22.30;;;;;;;;;;4997537;28;20202;-85
2022/01/14 03:21:14;;;;;;;38.17;18.30;;;-1.50;99.90;;;;;;4984167;28;21035;-85
2022/01/14 03:23:51;;;;;;;33.70;16.52;;;-1.50;99.90;;;;;;4983469;28;20187;-86
2022/01/14 03:26:19;;;;;;;37.33;18.48;;;-1.50;99.90;;;;;;4986826;28;20334;-86
2022/01/14 03:28:46;;;;;;;37.97;19.42;;;-1.60;99.90;;;;;;4985835;28;20715;-85
2022/01/14 03:31:12;;;;;;;41.30;20.13;;;-1.60;99.90;;;;;;4987846;28;20180;-87
2022/01/14 03:33:38;;;;;;;51.23;22.77;;;-1.60;99.90;;;;;;4984112;28;20254;-87
2022/01/14 03:36:06;;;;;;;47.20;22.98;;;-1.60;99.90;;;;;;4985649;28;20465;-86
2022/01/14 03:38:31;;;;;;;51.30;25.85;;;-1.60;99.90;;;;;;4984354;28;20279;-87
2022/01/14 03:40:58;;;;;;;54.77;26.27;;;-1.60;99.90;;;;;;4987817;28;20203;-86
2022/01/14 03:43:23;;;;;;;45.85;25.00;;;-1.60;99.90;;;;;;4991918;28;20459;-85
2022/01/14 03:45:50;;;;;;;43.43;23.40;;;-1.60;99.90;;;;;;4986454;28;20210;-87
2022/01/14 03:48:19;;;;;;;46.45;23.50;;;-1.60;99.90;;;;;;4997620;28;20179;-87
2022/01/14 03:50:45;;;;;;;55.03;24.27;;;-1.60;99.90;;;;;;4983760;28;20178;-86
2022/01/14 03:53:11;;;;;;;53.75;25.67;;;-1.60;99.90;;;;;;4983248;28;20184;-85
2022/01/14 03:55:42;;;;;;;54.10;21.85;;;-1.60;99.90;;;;;;4983672;28;20561;-84
2022/01/14 03:58:09;;;;;;;38.47;17.83;;;-1.60;99.90;;;;;;4984461;28;20224;-85
2022/01/14 04:00:35;;;;;;;36.95;16.20;;;-1.70;99.90;;;;;;4984873;28;20272;-87
2022/01/14 04:03:01;;;;;;;41.00;19.48;;;;;;;;;;4983400;28;20195;-87
2022/01/14 04:05:27;;;;;;;37.40;20.30;;;-1.80;99.90;;;;;;4996172;28;20199;-87
2022/01/14 04:07:53;;;;;;;50.00;22.27;;;-1.80;99.90;;;;;;4980846;28;20458;-87
2022/01/14 04:10:19;;;;;;;40.00;19.53;;;;;;;;;;4984126;28;20192;-86
2022/01/14 04:12:52;;;;;;;43.60;18.60;;;-1.80;99.90;;;;;;4980694;28;20644;-86
2022/01/14 04:15:37;;;;;;;42.90;18.40;;;-1.80;99.90;;;;;;4982426;28;20187;-85
2022/01/14 04:18:08;;;;;;;42.13;20.95;;;-1.80;99.90;;;;;;4978084;28;20195;-86
2022/01/14 04:20:35;;;;;;;46.83;23.30;;;-1.90;99.90;;;;;;4980062;28;20262;-85
2022/01/14 04:23:01;;;;;;;46.13;25.92;;;-1.90;99.90;;;;;;4982600;28;20225;-86
2022/01/14 04:25:27;;;;;;;44.72;19.50;;;-1.90;99.90;;;;;;4983062;28;20216;-86
2022/01/14 04:27:53;;;;;;;41.90;19.47;;;-1.90;99.90;;;;;;4981875;28;20266;-86
2022/01/14 04:30:20;;;;;;;57.60;26.27;;;-1.90;99.90;;;;;;4986660;28;20457;-87
2022/01/14 04:32:46;;;;;;;61.40;30.13;;;-1.90;99.90;;;;;;4983259;28;20202;-86
2022/01/14 04:35:11;;;;;;;52.15;25.90;;;-1.80;99.90;;;;;;4978232;28;20223;-87
2022/01/14 04:37:38;;;;;;;57.50;26.83;;;-1.70;99.90;;;;;;4982255;28;20991;-83
2022/01/14 04:40:04;;;;;;;60.30;30.08;;;-1.80;99.90;;;;;;4987381;28;20196;-85
2022/01/14 04:42:30;;;;;;;58.30;26.70;;;-1.70;99.90;;;;;;4980849;28;20230;-86
2022/01/14 04:44:56;;;;;;;55.97;23.85;;;-1.70;99.90;;;;;;4979217;28;20198;-86
2022/01/14 04:47:32;;;;;;;52.72;24.00;;;-1.70;99.90;;;;;;4980451;28;20176;-87
2022/01/14 04:49:59;;;;;;;58.47;26.73;;;-1.70;99.90;;;;;;4980710;28;20209;-86
2022/01/14 04:52:26;;;;;;;45.03;22.45;;;-1.70;99.90;;;;;;4981194;28;20648;-85
2022/01/14 04:54:51;;;;;;;40.72;24.65;;;-1.70;99.90;;;;;;4982398;28;20798;-85
2022/01/14 04:57:17;;;;;;;44.60;24.10;;;-1.70;99.90;;;;;;4980210;28;20230;-85
2022/01/14 04:59:46;;;;;;;42.77;20.37;;;-1.70;99.90;;;;;;4984092;28;20184;-87
2022/01/14 05:02:12;;;;;;;41.95;21.10;;;;;;;;;;4978403;28;20272;-87
2022/01/14 05:04:39;;;;;;;37.90;18.55;;;-1.70;99.90;;;;;;4978936;28;20227;-86
2022/01/14 05:07:04;;;;;;;50.42;23.27;;;-1.70;99.90;;;;;;4979500;28;20184;-86
2022/01/14 05:09:37;;;;;;;49.63;22.30;;;;;;;;;;4982479;28;20201;-87
2022/01/14 05:12:07;;;;;;;39.22;20.25;;;-1.70;99.90;;;;;;4981854;28;20217;-87
2022/01/14 05:14:33;;;;;;;37.13;16.98;;;-1.70;99.90;;;;;;4994623;28;20207;-88
2022/01/14 05:17:00;;;;;;;38.53;19.08;;;;;;;;;;4975602;28;20435;-86
2022/01/14 05:19:26;;;;;;;45.22;18.73;;;-1.70;99.90;;;;;;4980972;28;20184;-88
2022/01/14 05:21:51;;;;;;;43.57;22.37;;;-1.70;99.90;;;;;;4980521;28;20275;-87
2022/01/14 05:24:17;;;;;;;42.03;22.87;;;-1.90;99.90;;;;;;4976581;28;20450;-87
2022/01/14 05:26:42;;;;;;;39.60;18.50;;;-1.90;99.90;;;;;;4988589;28;20187;-88
2022/01/14 05:29:08;;;;;;;39.70;20.20;;;-1.80;99.90;;;;;;4982239;28;20864;-88
2022/01/14 05:31:40;;;;;;;50.83;23.60;;;-1.80;99.90;;;;;;4990971;28;20182;-89
2022/01/14 05:34:06;;;;;;;44.50;22.45;;;-2.00;99.90;;;;;;4991777;28;20179;-89
2022/01/14 05:36:32;;;;;;;41.00;22.70;;;-2.10;99.90;;;;;;4985387;28;20187;-89
2022/01/14 05:38:57;;;;;;;52.40;25.37;;;-2.10;99.90;;;;;;4991719;28;20172;-90
2022/01/14 05:41:23;;;;;;;43.47;25.40;;;-2.10;99.90;;;;;;4988236;28;20652;-90
2022/01/14 05:43:51;;;;;;;46.47;23.40;;;-2.10;99.90;;;;;;4986317;28;20176;-90
2022/01/14 05:46:17;;;;;;;41.67;20.23;;;-2.10;99.90;;;;;;4985139;28;20208;-90
2022/01/14 05:48:42;;;;;;;45.53;21.93;;;-2.10;99.90;;;;;;4990708;28;20401;-89
2022/01/14 05:51:08;;;;;;;53.60;25.33;;;;;;;;;;4985680;28;20171;-89
2022/01/14 05:53:34;;;;;;;44.60;21.77;;;-2.20;99.90;;;;;;4999509;28;20220;-90
2022/01/14 05:55:59;;;;;;;45.33;21.63;;;-2.30;99.90;;;;;;4990452;28;20488;-89
2022/01/14 05:58:25;;;;;;;45.10;23.90;;;-2.30;99.90;;;;;;5006067;28;20234;-89
2022/01/14 06:00:50;;;;;;;54.10;23.60;;;-2.30;99.90;;;;;;4989122;28;20191;-90
2022/01/14 06:03:16;;;;;;;51.97;22.97;;;-2.20;99.90;;;;;;4985809;28;20183;-89
2022/01/14 06:05:42;;;;;;;56.80;22.33;;;-2.20;99.90;;;;;;4986085;28;20207;-89
2022/01/14 06:08:08;;;;;;;46.55;21.90;;;-2.10;99.90;;;;;;5000245;28;20790;-87
2022/01/14 06:10:33;;;;;;;45.40;22.00;;;-2.10;99.90;;;;;;4989547;28;20183;-89
2022/01/14 06:12:59;;;;;;;70.63;30.73;;;-1.70;99.90;;;;;;5001447;28;20184;-90
2022/01/14 06:15:26;;;;;;;72.70;32.47;;;-2.10;99.90;;;;;;4984396;28;20194;-90
2022/01/14 06:17:51;;;;;;;74.03;32.08;;;-2.10;99.90;;;;;;5001314;28;20222;-90
2022/01/14 06:20:17;;;;;;;59.47;31.57;;;-2.00;99.90;;;;;;4985302;28;20187;-91
2022/01/14 06:22:42;;;;;;;70.57;33.07;;;-2.00;99.90;;;;;;4984538;28;20198;-90
2022/01/14 06:25:08;;;;;;;65.93;32.43;;;-1.90;99.90;;;;;;4989014;28;20199;-90
2022/01/14 06:27:34;;;;;;;73.40;32.85;;;-1.90;99.90;;;;;;4988083;28;20274;-90
2022/01/14 06:30:04;;;;;;;67.90;32.40;;;-1.90;99.90;;;;;;4999712;28;20206;-91
2022/01/14 06:32:30;;;;;;;67.55;32.35;;;;;;;;;;4978411;28;20186;-89
2022/01/14 06:34:55;;;;;;;60.43;25.97;;;-1.90;99.90;;;;;;5000599;27;20819;-90
2022/01/14 06:37:22;;;;;;;39.60;16.23;;;-1.90;99.90;;;;;;4981692;28;20479;-89
2022/01/14 06:39:48;;;;;;;36.47;19.13;;;-1.90;99.90;;;;;;4990791;28;20191;-90
2022/01/14 06:42:14;;;;;;;47.67;21.67;;;-2.10;99.90;;;;;;4986364;28;20301;-90
2022/01/14 06:44:39;;;;;;;63.43;26.07;;;-2.20;99.90;;;;;;4983885;28;20207;-89
2022/01/14 06:47:05;;;;;;;50.37;25.17;;;-2.20;99.90;;;;;;4984515;28;20183;-90
2022/01/14 06:49:30;;;;;;;134.53;65.17;;;-2.20;99.90;;;;;;4989303;28;20190;-89
2022/01/14 06:51:56;;;;;;;120.40;51.40;;;-2.20;99.90;;;;;;4986272;28;20662;-90
2022/01/14 06:54:21;;;;;;;315.70;149.57;;;-2.20;99.90;;;;;;4987672;28;20649;-89
2022/01/14 06:56:47;;;;;;;292.67;139.30;;;;;;;;;;4984083;28;20196;-91
2022/01/14 06:59:13;;;;;;;133.83;64.23;;;-2.30;99.90;;;;;;4985353;28;20266;-90
2022/01/14 07:01:38;;;;;;;79.90;40.43;;;-2.30;99.90;;;;;;4990371;28;20431;-91
2022/01/14 07:04:04;;;;;;;66.20;30.50;;;;;;;;;;4986563;28;20236;-90
2022/01/14 07:06:30;;;;;;;49.03;24.83;;;-2.30;99.90;;;;;;5000140;28;20202;-90
2022/01/14 07:08:55;;;;;;;47.60;23.33;;;-2.30;99.90;;;;;;4987924;28;20438;-90
2022/01/14 07:11:25;;;;;;;99.20;49.93;;;-2.30;99.90;;;;;;4994700;28;20185;-89
2022/01/14 07:13:52;;;;;;;66.20;27.10;;;-2.30;99.90;;;;;;4997615;28;20180;-90
2022/01/14 07:16:19;;;;;;;59.50;25.38;;;-2.40;99.90;;;;;;4984142;28;20249;-89
2022/01/14 07:18:48;;;;;;;49.85;21.73;;;-2.40;99.90;;;;;;4987484;28;20271;-90
2022/01/14 07:21:13;;;;;;;47.90;23.00;;;-2.40;99.90;;;;;;4985937;28;20187;-89
2022/01/14 07:23:39;;;;;;;40.57;20.00;;;-2.30;99.90;;;;;;4983411;28;20191;-90
2022/01/14 07:26:06;;;;;;;46.63;22.67;;;-2.40;99.90;;;;;;4984382;28;20215;-90
2022/01/14 07:28:32;;;;;;;47.78;21.85;;;-2.40;99.90;;;;;;4989462;28;20178;-89
2022/01/14 07:30:57;;;;;;;51.23;25.93;;;-2.30;99.90;;;;;;4990076;28;20176;-89
2022/01/14 07:33:34;;;;;;;49.17;22.70;;;-2.40;99.90;;;;;;4990700;28;20713;-89
2022/01/14 07:35:59;;;;;;;55.97;23.65;;;-2.30;99.90;;;;;;4985409;28;20687;-90
2022/01/14 07:38:25;;;;;;;50.13;24.10;;;-2.20;99.90;;;;;;4983820;28;20291;-90
2022/01/14 07:40:51;;;;;;;44.07;21.67;;;;;;;;;;4990954;28;20269;-90
2022/01/14 07:43:19;;;;;;;57.63;27.00;;;-2.00;99.90;;;;;;4990202;28;20648;-89
2022/01/14 07:45:44;;;;;;;49.70;24.95;;;-1.90;99.90;;;;;;4991561;28;20457;-90
2022/01/14 07:48:12;;;;;;;48.30;24.60;;;-1.70;99.90;;;;;;4993459;28;20188;-90
2022/01/14 07:50:38;;;;;;;46.67;23.30;;;-1.40;99.90;;;;;;4993315;28;20198;-90
2022/01/14 07:53:04;;;;;;;46.45;21.52;;;-1.00;99.90;;;;;;4984541;28;20176;-89
2022/01/14 07:55:29;;;;;;;48.43;22.90;;;-0.50;99.90;;;;;;4988904;28;20200;-89
2022/01/14 07:57:55;;;;;;;50.97;27.30;;;0.10;99.90;;;;;;4992350;28;20221;-90
2022/01/14 08:00:21;;;;;;;56.80;25.43;;;;;;;;;;4984602;28;20237;-89
2022/01/14 08:02:46;;;;;;;38.80;21.00;;;1.90;99.90;;;;;;4992994;28;20174;-89
2022/01/14 08:05:14;;;;;;;36.67;20.00;;;2.90;99.90;;;;;;4986240;28;21070;-89
2022/01/14 08:07:45;;;;;;;33.67;18.08;;;3.80;99.90;;;;;;4987359;28;20220;-90
2022/01/14 08:10:12;;;;;;;36.30;19.13;;;4.70;99.90;;;;;;4990973;28;20176;-90
2022/01/14 08:12:38;;;;;;;24.80;14.95;;;5.70;99.90;;;;;;4986551;28;20183;-89
2022/01/14 08:15:04;;;;;;;29.43;15.40;;;6.50;99.90;;;;;;4989453;28;20206;-87
2022/01/14 08:17:31;;;;;;;25.33;15.40;;;7.30;99.90;;;;;;4988466;28;20295;-90
2022/01/14 08:19:57;;;;;;;30.63;16.45;;;8.10;99.90;;;;;;4996251;28;20183;-90
2022/01/14 08:22:22;;;;;;;22.33;14.47;;;8.80;99.90;;;;;;5000398;28;20558;-90
2022/01/14 08:24:48;;;;;;;26.57;15.87;;;;;;;;;;4983866;28;20738;-88
2022/01/14 08:27:14;;;;;;;35.03;20.40;;;;;;;;;;4998022;28;20174;-90
2022/01/14 08:29:41;;;;;;;30.65;18.27;;;8.90;99.90;;;;;;4998481;28;20426;-90
2022/01/14 08:32:07;;;;;;;32.17;18.83;;;7.90;99.90;;;;;;4994792;28;20664;-90
2022/01/14 08:34:33;;;;;;;32.17;19.37;;;;;;;;;;4984115;28;20218;-90
2022/01/14 08:36:59;;;;;;;31.67;18.23;;;;;;;;;;4998913;28;20328;-90
2022/01/14 08:39:24;;;;;;;33.67;17.38;;;7.50;99.90;;;;;;4994681;28;20192;-90
2022/01/14 08:41:50;;;;;;;32.03;18.70;;;;;;;;;;4990390;28;20232;-88
2022/01/14 08:44:16;;;;;;;31.05;18.02;;;7.90;99.90;;;;;;4977850;28;20202;-89
2022/01/14 08:46:43;;;;;;;36.50;19.03;;;8.60;99.90;;;;;;4982114;28;20183;-90
2022/01/14 08:49:09;;;;;;;29.65;17.08;;;;;;;;;;4981543;28;20857;-90
2022/01/14 08:51:36;;;;;;;27.08;15.57;;;9.90;99.90;;;;;;4980803;28;20187;-89
2022/01/14 08:54:03;;;;;;;23.10;15.38;;;10.30;99.90;;;;;;4979224;28;20195;-89
2022/01/14 08:56:32;;;;;;;26.95;17.58;;;10.40;99.90;;;;;;4978997;28;20198;-90
2022/01/14 08:58:57;;;;;;;31.42;17.45;;;10.40;99.90;;;;;;4980974;28;20206;-91
2022/01/14 09:01:23;;;;;;;34.23;19.93;;;10.60;99.90;;;;;;4978620;28;20203;-90
2022/01/14 09:03:49;;;;;;;38.50;23.80;;;;;;;;;;4980310;28;20187;-90
2022/01/14 09:06:15;;;;;;;28.17;18.27;;;;;;;;;;4994753;28;20444;-90
2022/01/14 09:08:41;;;;;;;29.10;19.00;;;;;;;;;;4994777;28;20466;-91
2022/01/14 09:11:08;;;;;;;300.10;161.00;;;10.70;99.90;;;;;;4992438;28;20453;-90
2022/01/14 09:13:34;;;;;;;41.85;25.33;;;9.60;99.90;;;;;;4981499;28;20179;-87
2022/01/14 09:16:00;;;;;;;66.07;35.35;;;;;;;;;;4980234;28;20207;-89
2022/01/14 09:18:26;;;;;;;38.08;24.17;;;;;;;;;;4991544;28;20204;-90
2022/01/14 09:20:52;;;;;;;35.33;18.48;;;;;;;;;;4994845;28;20210;-89
2022/01/14 09:23:24;;;;;;;29.05;18.17;;;11.30;99.90;;;;;;4991818;28;20254;-89
2022/01/14 09:25:52;;;;;;;24.80;16.60;;;11.30;99.90;;;;;;4988080;28;20192;-90
2022/01/14 09:28:18;;;;;;;32.67;18.55;;;;;;;;;;4980209;28;20172;-90
2022/01/14 09:30:44;;;;;;;30.38;18.30;;;;;;;;;;4987816;28;20187;-90
2022/01/14 09:33:10;;;;;;;34.58;20.92;;;;;;;;;;4978427;28;20194;-89
2022/01/14 09:35:37;;;;;;;35.97;20.80;;;10.50;99.90;;;;;;4977346;28;20222;-90
2022/01/14 09:38:03;;;;;;;28.52;19.52;;;;;;;;;;4983034;28;20206;-90
2022/01/14 09:40:29;;;;;;;38.55;21.85;;;10.00;99.90;;;;;;4979950;28;20684;-89
2022/01/14 09:43:00;;;;;;;36.67;22.38;;;;;;;;;;4984276;28;20244;-90
2022/01/14 09:45:29;;;;;;;40.05;20.52;;;10.40;99.90;;;;;;4980105;28;20294;-89
2022/01/14 09:47:56;;;;;;;36.10;21.67;;;9.80;99.90;;;;;;4979645;28;20179;-89
2022/01/14 09:50:22;;;;;;;38.85;23.50;;;9.20;99.90;;;;;;4984083;28;20246;-89
2022/01/14 09:52:51;;;;;;;35.22;21.13;;;8.00;99.90;;;;;;4995648;28;20180;-89
2022/01/14 09:55:18;;;;;;;42.20;23.65;;;7.00;99.90;;;;;;4976959;28;20210;-90
2022/01/14 09:57:44;;;;;;;41.33;24.25;;;5.90;99.90;;;;;;4982787;28;20313;-90
2022/01/14 10:00:11;;;;;;;39.28;23.15;;;4.70;99.90;;;;;;4984236;28;20221;-89
2022/01/14 10:02:39;;;;;;;39.08;22.45;;;3.80;99.90;;;;;;4979723;28;20194;-89
2022/01/14 10:05:07;;;;;;;38.28;23.23;;;3.40;99.90;;;;;;4981120;28;20187;-89
2022/01/14 10:07:33;;;;;;;47.00;23.48;;;3.20;99.90;;;;;;4992813;28;20200;-89
2022/01/14 10:10:01;;;;;;;39.70;22.93;;;;;;;;;;4984613;28;20193;-89
2022/01/14 10:12:31;;;;;;;48.22;25.10;;;2.80;99.90;;;;;;4974825;28;20488;-88
2022/01/14 10:15:00;;;;;;;36.05;22.00;;;2.80;99.90;;;;;;4980083;28;20210;-90
2022/01/14 10:17:43;;;;;;;38.20;21.30;;;2.70;99.90;;;;;;4979236;28;20579;-89
2022/01/14 10:20:14;;;;;;;46.65;23.15;;;2.80;99.90;;;;;;4978517;28;20661;-88
2022/01/14 10:22:43;;;;;;;37.58;22.50;;;2.90;99.90;;;;;;4978619;28;20957;-89
2022/01/14 10:25:20;;;;;;;41.63;25.10;;;2.90;99.90;;;;;;4979479;28;20668;-89
2022/01/14 10:27:48;;;;;;;45.05;25.73;;;2.90;99.90;;;;;;4990522;28;20175;-89
2022/01/14 10:30:24;;;;;;;41.83;24.58;;;3.00;99.90;;;;;;4983849;28;20245;-89
2022/01/14 10:33:07;;;;;;;50.00;24.90;;;3.10;99.90;;;;;;4993284;28;20183;-89
2022/01/14 10:35:45;;;;;;;38.13;24.67;;;3.20;99.90;;;;;;4983017;28;20204;-89
2022/01/14 10:38:13;;;;;;;41.15;25.25;;;3.30;99.90;;;;;;4981875;28;20698;-88
2022/01/14 10:40:46;;;;;;;40.50;24.40;;;3.40;99.90;;;;;;4984462;28;20191;-89
2022/01/14 10:43:15;;;;;;;48.80;25.25;;;3.40;99.90;;;;;;4979711;28;20183;-88
2022/01/14 10:45:42;;;;;;;45.90;24.95;;;3.50;99.90;;;;;;4982679;28;20207;-89
2022/01/14 10:48:32;;;;;;;37.17;23.77;;;3.60;99.90;;;;;;4983456;28;20223;-88
2022/01/14 10:51:06;;;;;;;47.67;25.83;;;3.60;99.90;;;;;;4995312;28;20218;-90
2022/01/14 10:53:31;;;;;;;43.88;27.85;;;3.60;99.90;;;;;;4994055;28;20649;-89
2022/01/14 10:56:04;;;;;;;41.53;24.93;;;3.50;99.90;;;;;;4982627;28;20283;-89
2022/01/14 10:58:35;;;;;;;47.75;25.17;;;3.50;99.90;;;;;;4982866;28;20195;-89
2022/01/14 11:01:06;;;;;;;45.13;25.58;;;3.50;99.90;;;;;;4979949;28;20183;-89
2022/01/14 11:03:35;;;;;;;42.72;23.10;;;3.50;99.90;;;;;;4980340;28;20187;-88
2022/01/14 11:06:40;;;;;;;54.45;25.77;;;3.60;99.90;;;;;;4980940;28;20211;-89
2022/01/14 11:09:06;;;;;;;40.92;25.13;;;3.80;99.90;;;;;;4975719;28;20690;-89
2022/01/14 11:11:38;;;;;;;43.20;26.20;;;4.00;99.90;;;;;;4979548;28;20182;-89
2022/01/14 11:14:05;;;;;;;60.45;26.58;;;4.20;99.90;;;;;;4980014;28;20190;-88
2022/01/14 11:16:32;;;;;;;47.67;27.30;;;4.10;99.90;;;;;;4995547;28;20676;-88
2022/01/14 11:19:00;;;;;;;42.97;23.60;;;4.20;99.90;;;;;;4979866;28;20175;-89
2022/01/14 11:24:23;;;;;;;38.13;24.02;;;4.40;99.90;;;;;;4980474;28;20975;-89
2022/01/14 11:26:50;;;;;;;40.40;25.13;;;4.50;99.90;;;;;;4980868;28;20171;-88
2022/01/14 11:29:20;;;;;;;41.25;24.35;;;4.50;99.90;;;;;;4992083;28;20861;-89
2022/01/14 11:31:55;;;;;;;43.20;25.45;;;4.60;99.90;;;;;;5003523;28;20588;-86
2022/01/14 11:34:30;;;;;;;44.58;27.27;;;4.80;99.90;;;;;;4983138;28;20187;-86
2022/01/14 11:36:58;;;;;;;44.20;28.13;;;4.70;99.90;;;;;;4985058;28;20195;-86
2022/01/14 11:39:30;;;;;;;43.58;26.17;;;4.90;99.90;;;;;;4985272;28;20176;-86
2022/01/14 11:42:14;;;;;;;36.75;24.33;;;5.20;99.90;;;;;;5000745;28;20221;-86
2022/01/14 11:45:00;;;;;;;40.95;24.48;;;5.00;99.90;;;;;;4986960;28;20289;-85
2022/01/14 11:47:26;;;;;;;45.55;25.20;;;5.00;99.90;;;;;;4992983;28;20190;-86
2022/01/14 11:49:53;;;;;;;40.10;25.37;;;5.10;99.90;;;;;;4999564;28;20584;-86
2022/01/14 11:52:43;;;;;;;46.33;24.23;;;5.20;99.90;;;;;;4986612;28;20180;-86
2022/01/14 11:55:23;;;;;;;44.97;24.23;;;5.10;99.90;;;;;;4999801;28;20212;-87
2022/01/14 11:58:04;;;;;;;41.22;24.40;;;4.90;99.90;;;;;;4984739;28;20999;-87
2022/01/14 12:00:30;;;;;;;37.22;22.77;;;5.00;99.90;;;;;;4998505;28;20228;-86
2022/01/14 12:03:11;;;;;;;38.90;22.20;;;4.90;99.90;;;;;;4987525;28;20180;-86
2022/01/14 12:05:56;;;;;;;37.85;21.33;;;5.10;99.90;;;;;;4984310;28;20200;-86
2022/01/14 12:08:24;;;;;;;38.13;21.73;;;5.20;99.90;;;;;;4984383;28;20207;-86
2022/01/14 12:10:58;;;;;;;31.80;20.10;;;5.30;99.90;;;;;;4997485;28;20179;-86
2022/01/14 12:13:27;;;;;;;39.15;21.48;;;5.30;99.90;;;;;;4982189;28;20179;-86
2022/01/14 12:16:00;;;;;;;32.10;19.88;;;5.30;99.90;;;;;;4985793;28;20911;-86
2022/01/14 12:18:57;;;;;;;37.97;20.55;;;5.30;99.90;;;;;;4983493;28;20195;-87
2022/01/14 12:21:40;;;;;;;31.00;20.00;;;5.40;99.90;;;;;;4995219;28;20203;-86
2022/01/14 12:24:18;;;;;;;30.30;19.92;;;5.60;99.90;;;;;;4982581;28;20192;-86
2022/01/14 12:27:03;;;;;;;34.75;20.88;;;5.70;99.90;;;;;;4980697;28;20172;-86
2022/01/14 12:29:46;;;;;;;46.95;21.15;;;5.70;99.90;;;;;;4983443;28;20885;-86
2022/01/14 12:32:30;;;;;;;36.33;20.10;;;5.80;99.90;;;;;;4997681;28;21765;-86
2022/01/14 12:34:55;;;;;;;33.50;20.10;;;5.90;99.90;;;;;;4983222;28;20199;-86
2022/01/14 12:37:30;;;;;;;33.07;19.90;;;5.90;99.90;;;;;;4984656;28;20879;-86
2022/01/14 12:40:01;;;;;;;33.78;21.27;;;5.90;99.90;;;;;;5002211;28;20265;-86
2022/01/14 12:42:26;;;;;;;31.27;21.52;;;5.90;99.90;;;;;;4981318;28;20203;-86
2022/01/14 12:44:53;;;;;;;39.40;22.00;;;6.00;99.90;;;;;;4983004;28;20695;-86
2022/01/14 12:47:32;;;;;;;31.30;20.17;;;6.10;99.90;;;;;;4989516;28;20188;-86
2022/01/14 12:50:05;;;;;;;34.28;21.85;;;6.10;99.90;;;;;;5000254;28;20188;-86
2022/01/14 12:52:38;;;;;;;33.55;21.02;;;6.30;99.90;;;;;;4981478;28;20210;-86
2022/01/14 12:55:10;;;;;;;33.08;20.88;;;6.40;99.90;;;;;;4983612;28;20203;-86
2022/01/14 12:57:36;;;;;;;35.58;20.35;;;6.40;99.90;;;;;;4984588;28;20568;-85
2022/01/14 13:00:04;;;;;;;36.40;21.83;;;6.50;99.90;;;;;;4983706;28;20183;-86
2022/01/14 13:02:30;;;;;;;31.70;21.27;;;6.60;99.90;;;;;;4986532;28;20198;-86
2022/01/14 13:05:00;;;;;;;37.92;22.20;;;6.60;99.90;;;;;;4983509;28;20199;-86
2022/01/14 13:07:25;;;;;;;36.10;20.13;;;6.60;99.90;;;;;;4983597;28;20183;-86
2022/01/14 13:09:52;;;;;;;33.63;22.13;;;6.70;99.90;;;;;;4984291;28;20194;-86
2022/01/14 13:12:20;;;;;;;32.95;21.80;;;;;;;;;;4982989;28;20508;-86